| time (UTC) | temp C | wind direction | speed KPH | gust KPH | rain 1hr cm | rain 24hr cm | rain mn cm | humidity % | barometer mb |
| 20260506051050 | 9 | 349 | 0.0 | 0.0 | 0.03 | 2.46 | 0.03 | 96 | 1011.1 |
| 20260506050550 | 9 | 349 | 0.0 | 0.0 | 0.03 | 2.46 | 0.03 | 96 | 1011.1 |
| 20260506045053 | 9 | 349 | 0.0 | 0.0 | 0.03 | 2.77 | 0.03 | 95 | 1011.1 |
| 20260506044559 | 9 | 349 | 0.0 | 0.0 | 0.03 | 2.77 | 0.03 | 95 | 1011.1 |
| 20260506044048 | 9 | 349 | 0.0 | 0.0 | 0.00 | 2.77 | 0.00 | 95 | 1011.1 |
| 20260506043548 | 9 | 349 | 0.0 | 0.0 | 0.00 | 2.77 | 0.00 | 95 | 1011.1 |
| 20260506043048 | 9 | 349 | 0.0 | 0.0 | 0.00 | 2.77 | 0.00 | 95 | 1011.1 |
| 20260506042548 | 9 | 349 | 0.0 | 0.0 | 0.00 | 2.77 | 0.00 | 95 | 1011.1 |
| 20260506042048 | 9 | 349 | 0.0 | 0.0 | 0.00 | 2.77 | 0.00 | 96 | 1011.1 |
| 20260506041549 | 9 | 349 | 0.0 | 0.0 | 0.00 | 2.77 | 0.00 | 95 | 1011.1 |
| 20260506041046 | 9 | 349 | 0.0 | 0.0 | 0.00 | 2.77 | 0.00 | 95 | 1011.1 |
| 20260506040546 | 9 | 349 | 0.0 | 0.0 | 0.00 | 2.77 | 0.00 | 95 | 1011.2 |
| 20260506040046 | 9 | 349 | 0.0 | 0.0 | 0.00 | 2.77 | 0.00 | 95 | 1011.2 |
| 20260506035546 | 9 | 349 | 0.0 | 0.0 | 0.00 | 2.92 | 0.00 | 95 | 1011.2 |
| 20260506035045 | 9 | 349 | 0.0 | 0.0 | 0.00 | 2.92 | 0.00 | 95 | 1011.2 |
| 20260506034545 | 9 | 349 | 0.0 | 0.0 | 0.00 | 2.92 | 0.00 | 95 | 1011.2 |
| 20260506034043 | 9 | 349 | 0.0 | 0.0 | 0.00 | 2.92 | 0.00 | 95 | 1011.3 |
| 20260506033543 | 9 | 349 | 0.0 | 0.0 | 0.00 | 2.92 | 0.00 | 95 | 1011.3 |
| 20260506033046 | 9 | 349 | 0.0 | 0.0 | 0.00 | 2.92 | 0.00 | 95 | 1011.3 |
| 20260506032547 | 10 | 349 | 0.0 | 0.0 | 0.00 | 2.92 | 0.00 | 95 | 1011.3 |
| 20260506032043 | 10 | 349 | 0.0 | 0.0 | 0.00 | 2.92 | 0.00 | 95 | 1011.3 |
| 20260506031549 | 10 | 349 | 0.0 | 0.0 | 0.00 | 2.92 | 0.00 | 95 | 1011.3 |
| 20260506031044 | 10 | 349 | 0.0 | 0.0 | 0.00 | 2.92 | 0.00 | 95 | 1011.3 |
| 20260506030546 | 10 | 349 | 0.0 | 0.0 | 0.00 | 2.92 | 0.00 | 95 | 1011.3 |
| 20260506030042 | 10 | 349 | 0.0 | 0.0 | 0.00 | 2.92 | 0.00 | 95 | 1011.3 |
| 20260506025542 | 10 | 349 | 0.0 | 0.0 | 0.00 | 3.17 | 0.00 | 95 | 1011.3 |
| 20260506025042 | 10 | 349 | 0.0 | 0.0 | 0.00 | 3.17 | 0.00 | 95 | 1011.3 |
| 20260506024547 | 10 | 349 | 0.0 | 0.0 | 0.00 | 3.17 | 0.00 | 95 | 1011.3 |
| 20260506024041 | 10 | 349 | 0.0 | 0.0 | 0.00 | 3.17 | 0.00 | 95 | 1011.3 |
| 20260506023541 | 10 | 349 | 0.0 | 0.0 | 0.00 | 3.17 | 0.00 | 95 | 1011.3 |
| 20260506023040 | 10 | 349 | 0.0 | 0.0 | 0.00 | 3.17 | 0.00 | 95 | 1011.3 |
| 20260506022540 | 10 | 349 | 0.0 | 0.0 | 0.00 | 3.17 | 0.00 | 95 | 1011.3 |
| 20260506022039 | 10 | 349 | 0.0 | 0.0 | 0.00 | 3.17 | 0.00 | 95 | 1011.3 |
| 20260506021539 | 10 | 349 | 0.0 | 0.0 | 0.00 | 3.17 | 0.00 | 95 | 1011.3 |
| 20260506021039 | 10 | 349 | 0.0 | 0.0 | 0.00 | 3.17 | 0.00 | 95 | 1011.3 |
| 20260506020538 | 10 | 349 | 0.0 | 0.0 | 0.00 | 3.17 | 0.00 | 95 | 1011.3 |
| 20260506020038 | 10 | 349 | 0.0 | 0.0 | 0.00 | 3.17 | 0.00 | 95 | 1011.4 |
| 20260506015541 | 10 | 349 | 0.0 | 0.0 | 0.00 | 3.35 | 0.00 | 95 | 1011.4 |
| 20260506015038 | 10 | 349 | 0.0 | 0.0 | 0.00 | 3.35 | 0.00 | 95 | 1011.4 |
| 20260506014541 | 10 | 349 | 0.0 | 0.0 | 0.00 | 3.35 | 0.00 | 95 | 1011.4 |
| 20260506014039 | 10 | 349 | 0.0 | 0.0 | 0.00 | 3.35 | 0.00 | 95 | 1011.4 |
| 20260506013536 | 10 | 349 | 0.0 | 0.0 | 0.00 | 3.35 | 0.00 | 95 | 1011.4 |
| 20260506013036 | 10 | 349 | 0.0 | 0.0 | 0.00 | 3.35 | 0.00 | 95 | 1011.4 |
| 20260506012535 | 10 | 349 | 0.0 | 0.0 | 0.00 | 3.35 | 0.00 | 95 | 1011.5 |
| 20260506012039 | 10 | 349 | 0.0 | 0.0 | 0.00 | 3.35 | 0.00 | 95 | 1011.5 |
| 20260506011534 | 10 | 349 | 0.0 | 0.0 | 0.00 | 3.35 | 0.00 | 95 | 1011.6 |
| 20260506011036 | 10 | 349 | 0.0 | 0.0 | 0.00 | 3.35 | 0.00 | 95 | 1011.6 |
| 20260506010537 | 10 | 349 | 0.0 | 0.0 | 0.00 | 3.35 | 0.00 | 95 | 1011.6 |
| 20260506010035 | 10 | 349 | 0.0 | 0.0 | 0.00 | 3.35 | 0.00 | 95 | 1011.7 |
| 20260506005535 | 10 | 349 | 0.0 | 0.0 | 0.00 | 3.61 | 0.00 | 95 | 1011.7 |
| 20260506005033 | 10 | 349 | 0.0 | 0.0 | 0.00 | 3.61 | 0.00 | 95 | 1011.7 |
| 20260506004532 | 10 | 349 | 0.0 | 0.0 | 0.00 | 3.61 | 0.00 | 95 | 1011.8 |
| 20260506004032 | 10 | 349 | 0.0 | 0.0 | 0.00 | 3.61 | 0.00 | 95 | 1011.7 |
| 20260506003531 | 10 | 349 | 0.0 | 0.0 | 0.00 | 3.61 | 0.00 | 95 | 1011.7 |
| 20260506003036 | 10 | 349 | 0.0 | 0.0 | 0.00 | 3.61 | 0.00 | 95 | 1011.7 |
| 20260506002531 | 10 | 349 | 0.0 | 0.0 | 0.00 | 3.61 | 0.00 | 95 | 1011.7 |
| 20260506002031 | 10 | 349 | 0.0 | 0.0 | 0.00 | 3.61 | 0.00 | 95 | 1011.7 |
| 20260506001536 | 10 | 349 | 0.0 | 0.0 | 0.00 | 3.61 | 0.00 | 95 | 1011.8 |
| 20260506001030 | 10 | 349 | 0.0 | 0.0 | 0.00 | 3.61 | 0.00 | 95 | 1011.9 |
| 20260506000530 | 10 | 349 | 0.0 | 0.0 | 0.00 | 3.61 | 0.00 | 95 | 1011.9 |
| 20260506000029 | 10 | 349 | 0.0 | 0.0 | 0.00 | 3.61 | 0.00 | 95 | 1011.9 |
| 20260505235530 | 10 | 349 | 0.0 | 0.0 | 0.00 | 4.04 | 0.00 | 95 | 1011.9 |
| 20260505235033 | 10 | 349 | 0.0 | 0.0 | 0.00 | 4.04 | 0.00 | 95 | 1011.9 |
| 20260505234535 | 10 | 349 | 0.0 | 0.0 | 0.00 | 4.04 | 0.00 | 95 | 1012.0 |
| 20260505234031 | 10 | 349 | 0.0 | 0.0 | 0.00 | 4.04 | 0.00 | 95 | 1011.9 |
| 20260505233527 | 10 | 349 | 0.0 | 0.0 | 0.00 | 4.04 | 0.00 | 95 | 1012.0 |
| 20260505233027 | 10 | 349 | 0.0 | 0.0 | 0.00 | 4.04 | 0.00 | 95 | 1012.0 |
| 20260505232527 | 10 | 349 | 0.0 | 0.0 | 0.00 | 4.04 | 0.00 | 95 | 1012.1 |
| 20260505232027 | 10 | 349 | 0.0 | 0.0 | 0.00 | 4.04 | 0.00 | 95 | 1012.1 |
| 20260505231527 | 10 | 349 | 0.0 | 0.0 | 0.00 | 4.04 | 0.00 | 95 | 1012.1 |
| 20260505231026 | 10 | 323 | 0.0 | 0.0 | 0.00 | 4.04 | 0.00 | 95 | 1012.1 |
| 20260505230526 | 10 | 355 | 0.0 | 8.0 | 0.00 | 4.04 | 0.00 | 95 | 1012.1 |
| 20260505230045 | 10 | 355 | 0.0 | 8.0 | 0.00 | 4.04 | 0.00 | 95 | 1012.1 |
| 20260505225526 | 10 | 336 | 0.0 | 0.0 | 0.00 | 4.24 | 0.00 | 95 | 1012.1 |
| 20260505225027 | 10 | 336 | 0.0 | 6.4 | 0.00 | 4.24 | 0.00 | 95 | 1012.1 |
| 20260505224526 | 10 | 329 | 0.0 | 6.4 | 0.00 | 4.24 | 0.00 | 95 | 1012.1 |
| 20260505224025 | 10 | 339 | 0.0 | 12.9 | 0.00 | 4.24 | 0.00 | 95 | 1012.1 |
| 20260505223524 | 10 | 332 | 3.2 | 12.9 | 0.00 | 4.24 | 0.00 | 95 | 1012.1 |
| 20260505223024 | 10 | 324 | 0.0 | 8.0 | 0.00 | 4.24 | 0.00 | 95 | 1012.2 |
| 20260505222525 | 10 | 319 | 0.0 | 8.0 | 0.00 | 4.24 | 0.00 | 95 | 1012.2 |
| 20260505222024 | 10 | 333 | 0.0 | 8.0 | 0.00 | 4.24 | 0.00 | 95 | 1012.2 |
| 20260505221523 | 10 | 326 | 0.0 | 8.0 | 0.00 | 4.24 | 0.00 | 95 | 1012.2 |
| 20260505221027 | 10 | 340 | 0.0 | 6.4 | 0.00 | 4.24 | 0.00 | 95 | 1012.1 |
| 20260505220522 | 10 | 348 | 0.0 | 12.9 | 0.00 | 4.24 | 0.00 | 94 | 1012.2 |
| 20260505220030 | 10 | 339 | 0.0 | 12.9 | 0.00 | 4.24 | 0.00 | 94 | 1012.2 |
| 20260505215525 | 10 | 355 | 0.0 | 8.0 | 0.00 | 4.27 | 4.24 | 94 | 1012.2 |
| 20260505215021 | 10 | 17 | 0.0 | 8.0 | 0.00 | 4.27 | 4.24 | 94 | 1012.2 |
| 20260505214521 | 10 | 350 | 0.0 | 9.7 | 0.00 | 4.27 | 4.24 | 94 | 1012.3 |
| 20260505214021 | 10 | 336 | 0.0 | 9.7 | 0.00 | 4.27 | 4.24 | 94 | 1012.3 |
| 20260505213521 | 10 | 339 | 0.0 | 8.0 | 0.00 | 4.27 | 4.24 | 94 | 1012.3 |
| 20260505213023 | 10 | 333 | 0.0 | 0.0 | 0.00 | 4.27 | 4.24 | 94 | 1012.4 |
| 20260505212524 | 10 | 349 | 0.0 | 4.8 | 0.00 | 4.27 | 4.24 | 94 | 1012.4 |
| 20260505212020 | 10 | 349 | 0.0 | 8.0 | 0.00 | 4.27 | 4.24 | 95 | 1012.5 |
| 20260505211520 | 10 | 344 | 0.0 | 8.0 | 0.00 | 4.27 | 4.24 | 95 | 1012.4 |
| 20260505211019 | 10 | 350 | 0.0 | 8.0 | 0.00 | 4.27 | 4.24 | 95 | 1012.4 |
| 20260505210519 | 10 | 355 | 1.6 | 17.7 | 0.00 | 4.27 | 4.24 | 94 | 1012.4 |
| 20260505210019 | 10 | 9 | 3.2 | 17.7 | 0.00 | 4.27 | 4.24 | 94 | 1012.4 |
| 20260505205519 | 10 | 307 | 0.0 | 12.9 | 0.00 | 4.27 | 4.24 | 94 | 1012.4 |
| 20260505205023 | 10 | 338 | 1.6 | 12.9 | 0.00 | 4.27 | 4.24 | 94 | 1012.3 |
| 20260505204518 | 10 | 333 | 1.6 | 12.9 | 0.00 | 4.27 | 4.24 | 94 | 1012.3 |
| 20260505204017 | 10 | 325 | 1.6 | 12.9 | 0.00 | 4.27 | 4.24 | 94 | 1012.3 |
| 20260505203517 | 10 | 311 | 0.0 | 9.7 | 0.00 | 4.27 | 4.24 | 94 | 1012.3 |
| 20260505203020 | 10 | 344 | 0.0 | 12.9 | 0.00 | 4.27 | 4.24 | 94 | 1012.3 |
| 20260505202517 | 10 | 360 | 0.0 | 12.9 | 0.00 | 4.27 | 4.24 | 95 | 1012.2 |
| 20260505202017 | 10 | 346 | 0.0 | 6.4 | 0.00 | 4.27 | 4.24 | 95 | 1012.2 |
| 20260505201516 | 10 | 351 | 0.0 | 8.0 | 0.00 | 4.27 | 4.24 | 95 | 1012.1 |
| 20260505201016 | 10 | 348 | 0.0 | 8.0 | 0.00 | 4.27 | 4.24 | 95 | 1012.1 |
| 20260505200516 | 10 | 335 | 0.0 | 1.6 | 0.00 | 4.27 | 4.24 | 95 | 1012.0 |
| 20260505200015 | 10 | 325 | 0.0 | 9.7 | 0.00 | 4.27 | 4.24 | 95 | 1011.9 |
| 20260505195519 | 10 | 325 | 0.0 | 9.7 | 0.00 | 4.27 | 4.24 | 95 | 1011.9 |
| 20260505195015 | 10 | 326 | 0.0 | 8.0 | 0.00 | 4.27 | 4.24 | 95 | 1011.9 |
| 20260505194515 | 10 | 360 | 0.0 | 8.0 | 0.00 | 4.27 | 4.24 | 95 | 1011.8 |
| 20260505194015 | 10 | 326 | 0.0 | 8.0 | 0.00 | 4.27 | 4.24 | 95 | 1011.8 |
| 20260505193514 | 10 | 346 | 0.0 | 8.0 | 0.00 | 4.27 | 4.24 | 95 | 1011.7 |
| 20260505193014 | 10 | 346 | 0.0 | 8.0 | 0.00 | 4.27 | 4.24 | 95 | 1011.7 |
| 20260505192519 | 10 | 355 | 0.0 | 8.0 | 0.00 | 4.27 | 4.24 | 95 | 1011.6 |
| 20260505192014 | 10 | 355 | 0.0 | 6.4 | 0.00 | 4.27 | 4.24 | 95 | 1011.6 |
| 20260505191515 | 10 | 355 | 0.0 | 12.9 | 0.00 | 4.27 | 4.24 | 95 | 1011.7 |
| 20260505191014 | 10 | 343 | 0.0 | 12.9 | 0.00 | 4.27 | 4.24 | 95 | 1011.7 |
| 20260505190513 | 10 | 347 | 0.0 | 6.4 | 0.00 | 4.27 | 4.24 | 95 | 1011.7 |
| 20260505190013 | 10 | 326 | 0.0 | 9.7 | 0.00 | 4.27 | 4.24 | 95 | 1011.7 |
| 20260505185513 | 11 | 337 | 0.0 | 16.1 | 0.00 | 4.27 | 4.24 | 95 | 1011.7 |
| 20260505185013 | 11 | 298 | 0.0 | 8.0 | 0.00 | 4.27 | 4.24 | 95 | 1011.6 |
| 20260505184513 | 11 | 318 | 0.0 | 19.3 | 0.00 | 4.27 | 4.24 | 95 | 1011.5 |
| 20260505184013 | 11 | 345 | 6.4 | 19.3 | 0.00 | 4.27 | 4.24 | 95 | 1011.5 |
| 20260505183512 | 11 | 355 | 0.0 | 16.1 | 0.00 | 4.27 | 4.24 | 94 | 1011.5 |
| 20260505183012 | 11 | 360 | 1.6 | 16.1 | 0.00 | 4.27 | 4.24 | 94 | 1011.4 |
| 20260505182512 | 11 | 343 | 0.0 | 16.1 | 0.00 | 4.27 | 4.24 | 94 | 1011.4 |
| 20260505182016 | 11 | 317 | 4.8 | 16.1 | 0.00 | 4.27 | 4.24 | 94 | 1011.4 |
| 20260505181512 | 11 | 29 | 3.2 | 14.5 | 0.00 | 4.27 | 4.24 | 94 | 1011.4 |
| 20260505181012 | 11 | 333 | 4.8 | 16.1 | 0.00 | 4.27 | 4.24 | 95 | 1011.4 |
| 20260505180611 | 11 | 331 | 4.8 | 16.1 | 0.00 | 4.27 | 4.24 | 95 | 1011.4 |
| 20260505180030 | 11 | 351 | 0.0 | 12.9 | 0.00 | 4.27 | 4.24 | 95 | 1011.4 |
| 20260505175510 | 11 | 355 | 0.0 | 12.9 | 0.00 | 4.27 | 4.24 | 95 | 1011.4 |
| 20260505175010 | 11 | 326 | 0.0 | 9.7 | 0.00 | 4.27 | 4.24 | 95 | 1011.4 |
| 20260505174510 | 11 | 315 | 3.2 | 9.7 | 0.00 | 4.27 | 4.24 | 95 | 1011.4 |
| 20260505174010 | 11 | 333 | 0.0 | 8.0 | 0.00 | 4.27 | 4.24 | 95 | 1011.4 |
| 20260505173508 | 11 | 332 | 0.0 | 1.6 | 0.00 | 4.27 | 4.24 | 95 | 1011.4 |
| 20260505173009 | 11 | 331 | 0.0 | 0.0 | 0.00 | 4.27 | 4.24 | 95 | 1011.4 |
| 20260505172515 | 11 | 329 | 0.0 | 0.0 | 0.00 | 4.27 | 4.24 | 95 | 1011.4 |
| 20260505172012 | 11 | 318 | 0.0 | 6.4 | 0.00 | 4.27 | 4.24 | 95 | 1011.4 |
| 20260505171509 | 11 | 335 | 0.0 | 8.0 | 0.00 | 4.27 | 4.24 | 95 | 1011.4 |
| 20260505171014 | 11 | 339 | 0.0 | 8.0 | 0.03 | 4.27 | 4.24 | 95 | 1011.4 |
| 20260505170509 | 11 | 335 | 0.0 | 6.4 | 0.03 | 4.27 | 4.24 | 95 | 1011.4 |
| 20260505170008 | 11 | 303 | 0.0 | 6.4 | 0.03 | 4.27 | 4.24 | 95 | 1011.4 |
| 20260505165508 | 11 | 5 | 0.0 | 9.7 | 0.05 | 4.27 | 4.24 | 95 | 1011.4 |
| 20260505165008 | 11 | 351 | 0.0 | 9.7 | 0.05 | 4.27 | 4.24 | 95 | 1011.4 |
| 20260505164508 | 11 | 325 | 0.0 | 12.9 | 0.08 | 4.27 | 4.24 | 95 | 1011.4 |
| 20260505164008 | 11 | 355 | 0.0 | 12.9 | 0.08 | 4.27 | 4.24 | 95 | 1011.4 |
| 20260505163513 | 11 | 342 | 0.0 | 14.5 | 0.10 | 4.27 | 4.24 | 95 | 1011.5 |
| 20260505163009 | 11 | 355 | 4.8 | 14.5 | 0.13 | 4.27 | 4.24 | 95 | 1011.5 |
| 20260505162507 | 11 | 355 | 1.6 | 14.5 | 0.13 | 4.27 | 4.24 | 95 | 1011.4 |
| 20260505162007 | 11 | 334 | 1.6 | 17.7 | 0.15 | 4.27 | 4.24 | 95 | 1011.5 |
| 20260505161507 | 11 | 355 | 4.8 | 20.9 | 0.15 | 4.27 | 4.24 | 95 | 1011.5 |
| 20260505161006 | 11 | 332 | 1.6 | 20.9 | 0.15 | 4.24 | 4.22 | 95 | 1011.4 |
| 20260505160507 | 11 | 360 | 1.6 | 16.1 | 0.15 | 4.24 | 4.22 | 95 | 1011.5 |
| 20260505153010 | 11 | 334 | 1.6 | 17.7 | 0.15 | 4.14 | 4.11 | 95 | 1011.4 |
| 20260505152508 | 11 | 318 | 4.8 | 17.7 | 0.15 | 4.14 | 4.11 | 95 | 1011.4 |
| 20260505152008 | 11 | 355 | 3.2 | 17.7 | 0.15 | 4.11 | 4.09 | 95 | 1011.4 |
| 20260505151505 | 11 | 326 | 3.2 | 17.7 | 0.15 | 4.09 | 4.09 | 95 | 1011.4 |
| 20260505151004 | 11 | 322 | 3.2 | 16.1 | 0.15 | 4.09 | 4.06 | 95 | 1011.4 |
| 20260505150504 | 11 | 344 | 0.0 | 16.1 | 0.15 | 4.06 | 4.04 | 95 | 1011.4 |
| 20260505140502 | 11 | 5 | 0.0 | 0.0 | 0.33 | 3.91 | 3.89 | 95 | 1011.3 |
| 20260505124558 | 10 | 28 | 3.2 | 12.9 | 0.28 | 3.51 | 3.48 | 95 | 1011.4 |
| 20260505124057 | 10 | 21 | 1.6 | 9.7 | 0.28 | 3.48 | 3.45 | 95 | 1011.4 |
| 20260505123556 | 10 | 19 | 0.0 | 1.6 | 0.25 | 3.43 | 3.43 | 94 | 1011.4 |
| 20260505123059 | 10 | 28 | 0.0 | 12.9 | 0.25 | 3.43 | 3.40 | 95 | 1011.4 |
| 20260505122556 | 10 | 25 | 1.6 | 14.5 | 0.25 | 3.40 | 3.38 | 94 | 1011.5 |
| 20260505122056 | 10 | 360 | 1.6 | 12.9 | 0.23 | 3.35 | 3.33 | 94 | 1011.5 |
| 20260505121556 | 11 | 21 | 0.0 | 9.7 | 0.23 | 3.33 | 3.33 | 94 | 1011.4 |
| 20260505121056 | 11 | 36 | 3.2 | 16.1 | 0.20 | 3.33 | 3.30 | 94 | 1011.4 |
| 20260505120556 | 10 | 18 | 8.0 | 16.1 | 0.18 | 3.28 | 3.25 | 94 | 1011.5 |
| 20260505120057 | 11 | 11 | 3.2 | 16.1 | 0.18 | 3.25 | 3.25 | 94 | 1011.4 |
| 20260505115555 | 10 | 12 | 3.2 | 9.7 | 0.18 | 3.25 | 3.25 | 94 | 1011.4 |
| 20260505115055 | 10 | 25 | 0.0 | 17.7 | 0.18 | 3.25 | 3.23 | 94 | 1011.4 |
| 20260505114559 | 11 | 9 | 4.8 | 20.9 | 0.18 | 3.23 | 3.20 | 94 | 1011.4 |
| 20260505114054 | 11 | 11 | 3.2 | 20.9 | 0.15 | 3.20 | 3.17 | 94 | 1011.4 |
| 20260505113553 | 11 | 5 | 3.2 | 19.3 | 0.15 | 3.17 | 3.15 | 94 | 1011.4 |
| 20260505113055 | 11 | 16 | 6.4 | 22.5 | 0.15 | 3.15 | 3.15 | 95 | 1011.4 |
| 20260505112553 | 11 | 34 | 3.2 | 22.5 | 0.15 | 3.15 | 3.12 | 95 | 1011.4 |
| 20260505112053 | 11 | 20 | 0.0 | 19.3 | 0.15 | 3.12 | 3.10 | 95 | 1011.4 |
| 20260505111553 | 11 | 12 | 8.0 | 22.5 | 0.15 | 3.12 | 3.10 | 95 | 1011.4 |
| 20260505111053 | 11 | 42 | 8.0 | 22.5 | 0.15 | 3.12 | 3.10 | 95 | 1011.5 |
| 20260505110551 | 11 | 5 | 4.8 | 12.9 | 0.15 | 3.10 | 3.07 | 95 | 1011.5 |
| 20260505102050 | 11 | 30 | 3.2 | 17.7 | 0.10 | 2.97 | 2.97 | 95 | 1011.4 |
| 20260505101605 | 11 | 10 | 9.7 | 17.7 | 0.10 | 2.97 | 2.92 | 95 | 1011.3 |
| 20260505101052 | 11 | 355 | 0.0 | 16.1 | 0.13 | 2.97 | 2.92 | 95 | 1011.3 |
| 20260505100548 | 11 | 9 | 3.2 | 16.1 | 0.13 | 2.97 | 2.92 | 95 | 1011.3 |
| 20260505100101 | 11 | 5 | 8.0 | 16.1 | 0.13 | 2.92 | 2.90 | 95 | 1011.3 |
| 20260505095548 | 11 | 14 | 6.4 | 17.7 | 0.15 | 2.92 | 2.90 | 95 | 1011.3 |
| 20260505095047 | 11 | 11 | 6.4 | 17.7 | 0.15 | 2.90 | 2.87 | 95 | 1011.3 |
| 20260505094548 | 11 | 5 | 4.8 | 16.1 | 0.15 | 2.90 | 2.87 | 95 | 1011.3 |
| 20260505094046 | 11 | 21 | 4.8 | 17.7 | 0.15 | 2.90 | 2.87 | 95 | 1011.2 |
| 20260505093546 | 11 | 34 | 8.0 | 17.7 | 0.15 | 2.87 | 2.84 | 95 | 1011.2 |
| 20260505093057 | 11 | 355 | 1.6 | 17.7 | 0.18 | 2.87 | 2.84 | 95 | 1011.2 |
| 20260505092546 | 11 | 24 | 1.6 | 16.1 | 0.15 | 2.84 | 2.84 | 95 | 1011.2 |
| 20260505092046 | 11 | 5 | 4.8 | 16.1 | 0.18 | 2.84 | 2.84 | 95 | 1011.2 |
| 20260505091545 | 11 | 20 | 0.0 | 19.3 | 0.18 | 2.84 | 2.84 | 95 | 1011.2 |
| 20260505091045 | 11 | 360 | 9.7 | 20.9 | 0.18 | 2.84 | 2.82 | 95 | 1011.2 |
| 20260505090545 | 11 | 9 | 3.2 | 16.1 | 0.20 | 2.84 | 2.82 | 95 | 1011.2 |
| 20260505090044 | 11 | 27 | 1.6 | 16.1 | 0.20 | 2.82 | 2.79 | 95 | 1011.2 |
| 20260505085544 | 11 | 5 | 8.0 | 16.1 | 0.20 | 2.79 | 2.77 | 95 | 1011.2 |
| 20260505085044 | 11 | 11 | 6.4 | 19.3 | 0.23 | 2.77 | 2.77 | 96 | 1011.2 |
| 20260505084544 | 11 | 5 | 8.0 | 22.5 | 0.23 | 2.77 | 2.77 | 95 | 1011.2 |
| 20260505084042 | 11 | 19 | 4.8 | 22.5 | 0.23 | 2.77 | 2.74 | 95 | 1011.3 |
| 20260505083543 | 11 | 15 | 11.3 | 22.5 | 0.23 | 2.74 | 2.72 | 95 | 1011.3 |
| 20260505083040 | 11 | 350 | 6.4 | 20.9 | 0.23 | 2.72 | 2.69 | 96 | 1011.3 |
| 20260505082540 | 11 | 21 | 6.4 | 20.9 | 0.25 | 2.69 | 2.69 | 96 | 1011.2 |
| 20260505082039 | 11 | 17 | 9.7 | 19.3 | 0.28 | 2.69 | 2.69 | 96 | 1011.2 |
| 20260505081541 | 11 | 350 | 4.8 | 12.9 | 0.25 | 2.69 | 2.67 | 96 | 1011.1 |
| 20260505081038 | 11 | 19 | 1.6 | 12.9 | 0.25 | 2.67 | 2.64 | 96 | 1011.1 |
| 20260505080540 | 11 | 15 | 3.2 | 12.9 | 0.25 | 2.64 | 2.62 | 96 | 1011.2 |
| 20260505080047 | 11 | 13 | 6.4 | 12.9 | 0.25 | 2.62 | 2.59 | 96 | 1011.2 |
| 20260505075537 | 11 | 17 | 1.6 | 9.7 | 0.25 | 2.59 | 2.59 | 96 | 1011.2 |
| 20260505075037 | 10 | 11 | 1.6 | 16.1 | 0.23 | 2.57 | 2.54 | 96 | 1011.2 |
| 20260505074537 | 11 | 21 | 8.0 | 17.7 | 0.23 | 2.54 | 2.51 | 95 | 1011.2 |
| 20260505074036 | 10 | 339 | 4.8 | 12.9 | 0.23 | 2.51 | 2.49 | 95 | 1011.2 |
| 20260505073535 | 10 | 24 | 1.6 | 8.0 | 0.20 | 2.49 | 2.49 | 96 | 1011.1 |
| 20260505073039 | 10 | 10 | 0.0 | 4.8 | 0.18 | 2.46 | 2.44 | 96 | 1011.1 |
| 20260505072535 | 10 | 5 | 0.0 | 12.9 | 0.18 | 2.44 | 2.41 | 96 | 1011.1 |
| 20260505072034 | 10 | 16 | 0.0 | 11.3 | 0.20 | 2.41 | 2.39 | 96 | 1011.1 |
| 20260505071537 | 10 | 5 | 0.0 | 12.9 | 0.23 | 2.41 | 2.39 | 96 | 1011.2 |
| 20260505071036 | 10 | 27 | 1.6 | 14.5 | 0.23 | 2.39 | 2.39 | 96 | 1011.2 |
| 20260505070533 | 10 | 11 | 0.0 | 14.5 | 0.23 | 2.39 | 2.36 | 96 | 1011.2 |
| 20260505070032 | 10 | 350 | 0.0 | 8.0 | 0.23 | 2.36 | 2.34 | 96 | 1011.2 |
| 20260505065530 | 10 | 349 | 0.0 | 8.0 | 0.23 | 2.34 | 2.31 | 96 | 1011.2 |
| 20260505065029 | 10 | 347 | 0.0 | 0.0 | 0.25 | 2.34 | 2.31 | 96 | 1011.2 |
| 20260505064528 | 10 | 338 | 0.0 | 14.5 | 0.28 | 2.31 | 2.31 | 96 | 1011.3 |
| 20260505064028 | 10 | 336 | 1.6 | 14.5 | 0.28 | 2.31 | 2.29 | 96 | 1011.3 |
| 20260505063529 | 10 | 355 | 6.4 | 20.9 | 0.30 | 2.29 | 2.26 | 95 | 1011.3 |
| 20260505063027 | 10 | 355 | 6.4 | 20.9 | 0.33 | 2.29 | 2.26 | 96 | 1011.3 |
| 20260505062527 | 10 | 340 | 1.6 | 16.1 | 0.33 | 2.26 | 2.24 | 96 | 1011.4 |
| 20260505062027 | 10 | 314 | 3.2 | 14.5 | 0.30 | 2.21 | 2.21 | 95 | 1011.3 |
| 20260505061532 | 10 | 328 | 3.2 | 17.7 | 0.30 | 2.21 | 2.18 | 95 | 1011.3 |
| 20260505061026 | 10 | 319 | 4.8 | 17.7 | 0.28 | 2.16 | 2.13 | 95 | 1011.3 |
| 20260505060525 | 10 | 349 | 4.8 | 17.7 | 0.30 | 2.13 | 2.11 | 95 | 1011.3 |
| 20260505060027 | 10 | 326 | 1.6 | 12.9 | 0.30 | 2.11 | 2.11 | 95 | 1011.2 |
| 20260505055525 | 10 | 273 | 0.0 | 1.6 | 0.30 | 2.11 | 2.08 | 96 | 1011.3 |
| 20260505055024 | 10 | 339 | 0.0 | 12.9 | 0.33 | 2.08 | 2.06 | 95 | 1011.3 |
| 20260505054523 | 10 | 344 | 0.0 | 12.9 | 0.30 | 2.03 | 2.03 | 95 | 1011.3 |
| 20260505054022 | 10 | 327 | 0.0 | 8.0 | 0.30 | 2.01 | 1.98 | 95 | 1011.3 |
| 20260505053522 | 10 | 5 | 0.0 | 9.7 | 0.30 | 1.98 | 1.96 | 95 | 1011.3 |
| 20260505053034 | 10 | 311 | 1.6 | 9.7 | 0.30 | 1.93 | 1.93 | 95 | 1011.3 |
| 20260505052523 | 9 | 317 | 0.0 | 3.2 | 0.30 | 1.93 | 1.91 | 95 | 1011.3 |
| 20260505052024 | 9 | 317 | 0.0 | 4.8 | 0.33 | 1.93 | 1.91 | 95 | 1011.3 |